Time;durP1;ratioP1;P1;durP2;ratioP2;P2;SDS_P1;SDS_P2;PMS_P1;PMS_P2;Temp;Humidity;BMP_temperature;BMP_pressure;BME280_temperature;BME280_humidity;BME280_pressure;Samples;Min_cycle;Max_cycle;Signal;HPM_P1;HPM_P2
2023/10/03 00:02:18;;;;;;;26.07;14.50;;;18.00;1.00;;;;;;5052106;28;20223;-77
2023/10/03 00:04:44;;;;;;;30.77;14.57;;;18.00;1.00;;;;;;5052552;28;20205;-77
2023/10/03 00:07:09;;;;;;;24.90;14.13;;;18.00;1.00;;;;;;5052275;28;20172;-76
2023/10/03 00:09:35;;;;;;;27.30;14.00;;;18.00;1.00;;;;;;5052137;28;20179;-77
2023/10/03 00:12:01;;;;;;;29.17;14.87;;;18.00;1.00;;;;;;5052143;28;20194;-77
2023/10/03 00:14:27;;;;;;;28.03;15.03;;;18.00;1.00;;;;;;5050752;28;20182;-76
2023/10/03 00:16:52;;;;;;;25.37;14.17;;;18.00;1.00;;;;;;5050738;28;20658;-77
2023/10/03 00:19:18;;;;;;;27.27;14.37;;;18.00;1.00;;;;;;5052038;28;20297;-77
2023/10/03 00:21:43;;;;;;;25.50;14.20;;;18.00;1.00;;;;;;5052080;28;20188;-76
2023/10/03 00:24:09;;;;;;;23.20;14.00;;;18.00;1.00;;;;;;5052092;28;20172;-77
2023/10/03 00:26:35;;;;;;;24.37;14.03;;;18.00;1.00;;;;;;5051976;28;20174;-77
2023/10/03 00:29:01;;;;;;;25.23;14.63;;;18.00;1.00;;;;;;5051982;28;20168;-76
2023/10/03 00:31:29;;;;;;;25.03;14.23;;;18.10;1.00;;;;;;5051685;28;20645;-77
2023/10/03 00:33:55;;;;;;;27.33;14.33;;;18.00;1.00;;;;;;5050555;28;20497;-77
2023/10/03 00:36:25;;;;;;;25.47;14.70;;;18.10;1.00;;;;;;5052104;28;20316;-76
2023/10/03 00:38:51;;;;;;;25.93;14.77;;;18.10;1.00;;;;;;5052043;28;20164;-77
2023/10/03 00:41:19;;;;;;;27.07;14.30;;;18.20;1.00;;;;;;5050453;28;20274;-77
2023/10/03 00:44:00;;;;;;;25.03;13.90;;;18.10;1.00;;;;;;5050562;28;20266;-77
2023/10/03 00:46:29;;;;;;;22.03;13.63;;;18.10;1.00;;;;;;5051820;28;20173;-77
2023/10/03 00:48:55;;;;;;;25.87;13.60;;;18.10;1.00;;;;;;5052181;28;20168;-75
2023/10/03 00:51:22;;;;;;;26.43;14.07;;;18.10;1.00;;;;;;5051999;28;20199;-77
2023/10/03 00:53:51;;;;;;;25.87;13.90;;;18.20;1.00;;;;;;5055797;28;20232;-77
2023/10/03 00:56:17;;;;;;;28.17;14.53;;;18.10;1.00;;;;;;5055938;28;20259;-77
2023/10/03 00:58:42;;;;;;;25.43;14.10;;;18.10;1.00;;;;;;5055789;28;20171;-76
2023/10/03 01:01:09;;;;;;;27.60;14.47;;;18.20;1.00;;;;;;5055612;28;20217;-76
2023/10/03 01:03:37;;;;;;;25.27;14.20;;;18.20;1.00;;;;;;5055560;28;20188;-77
2023/10/03 01:06:12;;;;;;;24.60;13.37;;;18.20;1.00;;;;;;5054355;28;20176;-77
2023/10/03 01:08:39;;;;;;;27.47;14.13;;;18.20;1.00;;;;;;5054231;28;20240;-77
2023/10/03 01:11:07;;;;;;;27.87;15.00;;;18.20;1.00;;;;;;5055708;28;20678;-77
2023/10/03 01:13:34;;;;;;;25.87;14.03;;;18.10;1.00;;;;;;5055675;28;20236;-77
2023/10/03 01:16:00;;;;;;;25.57;13.30;;;18.20;1.00;;;;;;5054001;28;20172;-77
2023/10/03 01:18:31;;;;;;;27.80;14.20;;;18.20;1.00;;;;;;5055398;28;20168;-76
2023/10/03 01:21:00;;;;;;;23.33;13.40;;;18.40;1.00;;;;;;5055433;28;20214;-77
2023/10/03 01:23:32;;;;;;;25.50;14.10;;;18.20;99.90;;;;;;5053801;28;20225;-75
2023/10/03 01:25:57;;;;;;;27.13;13.87;;;18.30;99.90;;;;;;5053840;28;20233;-76
2023/10/03 01:28:23;;;;;;;25.97;13.83;;;18.30;99.90;;;;;;5055332;28;20210;-76
2023/10/03 01:30:51;;;;;;;23.03;13.63;;;18.30;99.90;;;;;;5054893;28;20314;-77
2023/10/03 01:33:16;;;;;;;28.20;14.93;;;18.30;99.90;;;;;;5054984;28;20224;-77
2023/10/03 01:35:42;;;;;;;26.83;13.97;;;18.30;99.90;;;;;;5055119;28;20530;-77
2023/10/03 01:38:07;;;;;;;27.47;13.43;;;18.30;99.90;;;;;;5055136;28;20180;-77
2023/10/03 01:40:33;;;;;;;24.17;14.40;;;18.30;99.90;;;;;;5054963;28;20234;-77
2023/10/03 01:43:00;;;;;;;28.40;15.03;;;18.30;99.90;;;;;;5053587;28;20678;-77
2023/10/03 01:45:28;;;;;;;23.97;13.13;;;18.30;1.00;;;;;;5054900;28;20178;-77
2023/10/03 01:47:58;;;;;;;24.73;13.07;;;18.40;1.00;;;;;;5053500;28;20222;-77
2023/10/03 01:50:25;;;;;;;23.80;14.00;;;18.30;1.00;;;;;;5053548;28;20279;-77
2023/10/03 01:52:51;;;;;;;27.17;14.07;;;18.30;1.00;;;;;;5053670;28;20228;-76
2023/10/03 01:55:18;;;;;;;24.33;14.43;;;18.20;95.80;;;;;;5053852;28;20357;-77
2023/10/03 01:57:44;;;;;;;21.97;13.27;;;18.20;99.90;;;;;;5054823;28;20233;-76
2023/10/03 02:00:27;;;;;;;25.50;12.90;;;18.20;99.90;;;;;;5053228;28;20237;-77
2023/10/03 02:02:53;;;;;;;26.10;13.27;;;18.20;99.90;;;;;;5054713;28;20672;-77
2023/10/03 02:05:23;;;;;;;25.80;13.63;;;18.20;99.90;;;;;;5053121;28;20262;-77
2023/10/03 02:07:51;;;;;;;24.93;13.07;;;18.20;99.90;;;;;;5054528;28;20167;-77
2023/10/03 02:10:17;;;;;;;25.37;13.67;;;18.20;99.90;;;;;;5053907;28;20685;-77
2023/10/03 02:12:49;;;;;;;25.63;13.07;;;18.20;99.90;;;;;;5052803;28;20541;-77
2023/10/03 02:15:23;;;;;;;25.67;14.23;;;18.20;99.90;;;;;;5054364;28;20227;-77
2023/10/03 02:17:54;;;;;;;23.87;13.43;;;18.20;99.90;;;;;;5054408;28;20144;-77
2023/10/03 02:20:25;;;;;;;23.47;13.17;;;18.40;51.30;;;;;;5054582;28;20685;-77
2023/10/03 02:22:55;;;;;;;22.93;12.83;;;18.20;24.20;;;;;;5052888;28;20213;-77
2023/10/03 02:25:25;;;;;;;22.50;13.00;;;18.30;51.50;;;;;;5054095;28;20248;-77
2023/10/03 02:27:53;;;;;;;28.33;14.33;;;18.20;54.70;;;;;;5054210;28;20172;-76
2023/10/03 02:30:25;;;;;;;23.47;13.43;;;18.20;12.70;;;;;;5053976;28;20211;-77
2023/10/03 02:32:57;;;;;;;26.73;13.50;;;18.20;1.00;;;;;;5053175;28;20333;-76
2023/10/03 02:35:26;;;;;;;25.70;13.27;;;18.20;1.00;;;;;;5054073;28;20247;-77
2023/10/03 02:37:56;;;;;;;24.53;13.53;;;18.20;1.00;;;;;;5052540;28;20175;-77
2023/10/03 02:40:30;;;;;;;23.50;12.97;;;18.30;1.00;;;;;;5052627;28;20163;-77
2023/10/03 02:42:56;;;;;;;23.90;13.23;;;18.30;1.00;;;;;;5053990;28;20510;-76
2023/10/03 02:45:23;;;;;;;22.77;13.67;;;18.30;1.00;;;;;;5053817;28;20171;-77
2023/10/03 02:47:56;;;;;;;23.57;13.33;;;18.30;1.00;;;;;;5053697;28;20662;-77
2023/10/03 02:50:28;;;;;;;20.77;12.40;;;18.30;1.00;;;;;;5054197;28;20265;-77
2023/10/03 02:52:55;;;;;;;24.03;12.57;;;18.30;1.00;;;;;;5053710;28;20184;-77
2023/10/03 02:55:22;;;;;;;26.50;12.60;;;18.30;1.00;;;;;;5053826;28;20259;-77
2023/10/03 02:57:48;;;;;;;25.67;13.43;;;18.30;99.90;;;;;;5053611;28;20178;-75
2023/10/03 03:00:15;;;;;;;25.93;14.07;;;18.40;99.90;;;;;;5053563;28;20183;-77
2023/10/03 03:02:48;;;;;;;25.83;13.30;;;18.40;1.00;;;;;;5052137;28;20297;-77
2023/10/03 03:05:15;;;;;;;24.97;12.70;;;18.40;1.00;;;;;;5053637;28;20190;-77
2023/10/03 03:07:49;;;;;;;22.10;12.53;;;18.40;99.90;;;;;;5052077;28;20172;-77
2023/10/03 03:10:17;;;;;;;24.80;13.77;;;18.40;1.00;;;;;;5053573;28;20266;-77
2023/10/03 03:12:43;;;;;;;23.37;12.57;;;18.40;1.00;;;;;;5051962;28;20191;-77
2023/10/03 03:15:21;;;;;;;27.80;12.83;;;18.50;99.90;;;;;;5051145;28;20203;-77
2023/10/03 03:17:50;;;;;;;27.07;13.53;;;18.50;1.00;;;;;;5053628;28;20160;-76
2023/10/03 03:20:25;;;;;;;23.77;13.47;;;18.50;99.90;;;;;;5052226;28;20543;-77
2023/10/03 03:22:51;;;;;;;23.23;12.63;;;18.60;99.90;;;;;;5053250;28;20606;-77
2023/10/03 03:25:36;;;;;;;22.20;12.83;;;18.60;1.00;;;;;;5052920;28;20255;-77
2023/10/03 03:28:04;;;;;;;22.43;12.50;;;18.60;1.00;;;;;;5053134;28;20159;-77
2023/10/03 03:32:58;;;;;;;23.87;12.80;;;18.50;99.90;;;;;;5053152;28;20188;-77
2023/10/03 03:35:27;;;;;;;24.00;12.73;;;18.60;99.90;;;;;;5052927;28;20176;-77
2023/10/03 03:37:57;;;;;;;23.27;13.00;;;18.70;99.90;;;;;;5051492;28;20647;-77
2023/10/03 03:40:33;;;;;;;24.47;12.20;;;18.70;77.30;;;;;;5053102;28;20592;-77
2023/10/03 03:43:00;;;;;;;23.80;12.33;;;18.70;99.90;;;;;;5052686;28;20570;-77
2023/10/03 03:45:26;;;;;;;21.10;11.93;;;18.70;69.00;;;;;;5051410;28;20610;-76
2023/10/03 03:47:54;;;;;;;25.40;13.50;;;18.70;1.00;;;;;;5052769;28;20716;-77
2023/10/03 03:50:23;;;;;;;24.73;13.20;;;18.80;1.00;;;;;;5052693;28;20207;-77
2023/10/03 03:52:49;;;;;;;22.90;12.63;;;18.70;1.00;;;;;;5052675;28;20289;-77
2023/10/03 03:55:17;;;;;;;21.43;12.10;;;18.70;1.00;;;;;;5052570;28;20168;-77
2023/10/03 03:57:42;;;;;;;23.70;12.67;;;18.80;1.00;;;;;;5052789;28;20168;-77
2023/10/03 04:00:14;;;;;;;20.93;12.17;;;18.80;1.00;;;;;;5052602;28;20238;-77
2023/10/03 04:02:39;;;;;;;24.63;12.57;;;18.70;1.00;;;;;;5051807;28;20203;-77
2023/10/03 04:05:08;;;;;;;26.13;12.97;;;18.70;99.90;;;;;;5053124;28;20193;-77
2023/10/03 04:07:34;;;;;;;23.67;12.53;;;18.70;99.90;;;;;;5052992;28;20164;-76
2023/10/03 04:10:00;;;;;;;25.03;13.17;;;18.70;1.00;;;;;;5052239;28;20175;-77
2023/10/03 04:12:26;;;;;;;22.23;12.63;;;18.70;40.70;;;;;;5052262;28;20241;-77
2023/10/03 04:14:52;;;;;;;25.63;13.20;;;18.80;99.90;;;;;;5052253;28;20168;-76
2023/10/03 04:17:18;;;;;;;23.57;13.23;;;18.80;1.00;;;;;;5052256;28;20171;-76
2023/10/03 04:19:45;;;;;;;23.27;12.83;;;18.90;1.00;;;;;;5052258;28;20168;-77
2023/10/03 04:22:11;;;;;;;22.50;12.63;;;18.70;99.90;;;;;;5052070;28;20558;-77
2023/10/03 04:24:37;;;;;;;21.80;12.10;;;18.60;67.60;;;;;;5050809;28;20350;-77
2023/10/03 04:27:03;;;;;;;19.37;11.87;;;18.60;1.00;;;;;;5050560;28;20194;-75
2023/10/03 04:29:28;;;;;;;23.53;12.13;;;18.60;99.90;;;;;;5052038;28;20566;-77
2023/10/03 04:31:54;;;;;;;23.60;12.57;;;18.60;57.80;;;;;;5051871;28;20212;-77
2023/10/03 04:34:20;;;;;;;21.40;12.47;;;18.80;99.90;;;;;;5050695;28;20168;-76
2023/10/03 04:36:47;;;;;;;21.30;12.03;;;18.60;99.90;;;;;;5052279;28;20187;-77
2023/10/03 04:39:13;;;;;;;20.47;11.67;;;18.60;99.90;;;;;;5050694;28;20172;-76
2023/10/03 04:41:44;;;;;;;26.17;11.23;;;18.60;1.00;;;;;;5050610;28;20218;-77
2023/10/03 04:44:14;;;;;;;16.70;10.83;;;18.60;1.00;;;;;;5052180;28;20239;-76
2023/10/03 04:46:40;;;;;;;20.73;11.50;;;18.60;1.00;;;;;;5050829;28;20505;-77
2023/10/03 04:49:07;;;;;;;19.80;10.40;;;18.60;1.00;;;;;;5050486;28;20205;-77
2023/10/03 04:51:33;;;;;;;20.33;11.00;;;18.80;1.00;;;;;;5050351;28;20200;-77
2023/10/03 04:53:58;;;;;;;20.23;11.23;;;18.70;99.90;;;;;;5050475;28;20175;-75
2023/10/03 04:56:24;;;;;;;21.20;10.93;;;18.60;99.90;;;;;;5050654;28;20619;-76
2023/10/03 04:58:50;;;;;;;20.43;11.40;;;18.70;99.90;;;;;;5052218;28;20243;-76
2023/10/03 05:01:15;;;;;;;20.90;11.30;;;18.60;99.90;;;;;;5050941;28;20223;-78
2023/10/03 05:03:41;;;;;;;20.60;11.03;;;18.60;1.00;;;;;;5052048;28;20635;-77
2023/10/03 05:06:06;;;;;;;17.53;9.57;;;18.80;1.00;;;;;;5052036;28;20257;-77
2023/10/03 05:08:32;;;;;;;19.47;11.30;;;18.60;99.90;;;;;;5050309;28;20183;-77
2023/10/03 05:11:02;;;;;;;21.17;10.87;;;18.60;99.90;;;;;;5050133;28;20213;-77
2023/10/03 05:13:28;;;;;;;17.03;9.70;;;18.70;99.90;;;;;;5051606;28;20192;-76
2023/10/03 05:15:54;;;;;;;18.93;9.87;;;18.70;99.90;;;;;;5051581;28;20533;-77
2023/10/03 05:18:20;;;;;;;19.67;9.90;;;18.80;94.70;;;;;;5051614;28;20167;-76
2023/10/03 05:20:45;;;;;;;21.10;10.60;;;18.80;99.90;;;;;;5051910;28;20563;-77
2023/10/03 05:23:14;;;;;;;22.20;10.43;;;18.80;99.90;;;;;;5051431;28;20558;-76
2023/10/03 05:25:42;;;;;;;17.27;10.37;;;18.80;1.00;;;;;;5051518;28;20196;-77
2023/10/03 05:28:11;;;;;;;17.10;9.60;;;19.00;99.90;;;;;;5051753;28;20176;-77
2023/10/03 05:30:38;;;;;;;17.00;9.80;;;18.80;99.90;;;;;;5050140;28;20207;-77
2023/10/03 05:33:06;;;;;;;17.77;9.67;;;18.90;1.00;;;;;;5050064;28;20375;-77
2023/10/03 05:35:32;;;;;;;19.63;9.90;;;18.80;1.00;;;;;;5051488;28;20179;-77
2023/10/03 05:37:57;;;;;;;18.13;9.67;;;18.90;1.00;;;;;;5052664;28;20250;-77
2023/10/03 05:40:23;;;;;;;25.23;9.63;;;18.90;20.00;;;;;;5053774;28;20257;-77
2023/10/03 05:42:49;;;;;;;17.67;9.07;;;18.90;16.40;;;;;;5054867;28;20279;-77
2023/10/03 05:45:17;;;;;;;18.03;9.40;;;19.00;39.70;;;;;;5055012;28;20179;-77
2023/10/03 05:47:46;;;;;;;14.23;8.63;;;19.00;1.00;;;;;;5055052;28;20186;-77
2023/10/03 05:50:14;;;;;;;16.10;8.67;;;19.10;1.00;;;;;;5054796;28;20195;-76
2023/10/03 05:52:40;;;;;;;19.00;9.10;;;19.40;1.00;;;;;;5053609;28;20200;-77
2023/10/03 05:55:06;;;;;;;16.23;8.57;;;19.70;1.00;;;;;;5055053;28;20168;-77
2023/10/03 05:57:33;;;;;;;15.73;8.87;;;19.60;1.00;;;;;;5053646;28;20262;-77
2023/10/03 05:59:59;;;;;;;15.27;8.30;;;19.60;99.90;;;;;;5053383;28;20172;-77
2023/10/03 06:02:25;;;;;;;15.97;8.40;;;19.70;1.00;;;;;;5053371;28;20279;-77
2023/10/03 06:04:51;;;;;;;16.43;9.10;;;19.90;1.00;;;;;;5053522;28;20612;-77
2023/10/03 06:07:16;;;;;;;15.57;7.77;;;19.90;82.60;;;;;;5054751;28;20255;-77
2023/10/03 06:09:42;;;;;;;17.53;9.10;;;19.90;99.90;;;;;;5054785;28;20199;-77
2023/10/03 06:12:09;;;;;;;16.83;8.57;;;19.90;99.90;;;;;;5055579;28;20290;-77
2023/10/03 06:14:35;;;;;;;18.97;8.63;;;19.90;99.90;;;;;;5054536;28;20175;-77
2023/10/03 06:17:01;;;;;;;16.30;8.60;;;20.00;1.00;;;;;;5055348;28;20187;-77
2023/10/03 06:19:26;;;;;;;15.40;8.87;;;20.10;99.90;;;;;;5053230;28;20179;-75
2023/10/03 06:21:52;;;;;;;14.70;8.23;;;20.00;99.90;;;;;;5053160;28;20261;-77
2023/10/03 06:24:17;;;;;;;14.07;8.37;;;20.20;1.00;;;;;;5054680;28;20627;-77
2023/10/03 06:26:46;;;;;;;16.30;8.07;;;20.10;99.90;;;;;;5052965;28;20167;-77
2023/10/03 06:29:12;;;;;;;16.60;7.80;;;20.10;99.90;;;;;;5054241;28;20171;-77
2023/10/03 06:31:38;;;;;;;16.47;7.33;;;20.00;99.90;;;;;;5053839;28;20278;-77
2023/10/03 06:34:03;;;;;;;14.97;7.40;;;20.00;99.90;;;;;;5054114;28;20163;-77
2023/10/03 06:36:29;;;;;;;14.07;8.00;;;20.00;99.90;;;;;;5054268;28;20217;-77
2023/10/03 06:38:54;;;;;;;14.70;7.20;;;20.00;44.40;;;;;;5054047;28;20250;-77
2023/10/03 06:41:21;;;;;;;11.37;6.53;;;19.90;1.00;;;;;;5052728;28;20651;-77
2023/10/03 06:43:47;;;;;;;10.93;6.57;;;20.00;99.90;;;;;;5052645;28;20263;-77
2023/10/03 06:46:15;;;;;;;14.67;6.47;;;19.90;99.90;;;;;;5052669;28;20591;-77
2023/10/03 06:48:42;;;;;;;14.13;6.17;;;19.90;1.00;;;;;;5054051;28;20164;-77
2023/10/03 06:51:09;;;;;;;12.43;5.57;;;19.90;99.90;;;;;;5052407;28;20290;-77
2023/10/03 06:53:35;;;;;;;12.40;6.17;;;20.10;1.00;;;;;;5053709;28;20552;-77
2023/10/03 06:56:00;;;;;;;11.97;5.80;;;19.90;1.00;;;;;;5053722;28;20168;-77
2023/10/03 06:58:27;;;;;;;15.17;6.13;;;19.90;1.00;;;;;;5052402;28;20183;-78
2023/10/03 07:00:55;;;;;;;9.87;4.83;;;19.90;1.00;;;;;;5053829;28;20179;-77
2023/10/03 07:03:24;;;;;;;12.50;5.13;;;19.90;99.90;;;;;;5053630;28;20195;-77
2023/10/03 07:05:50;;;;;;;12.23;5.93;;;19.80;1.00;;;;;;5053510;28;20643;-77
2023/10/03 07:08:15;;;;;;;13.27;5.73;;;19.90;99.90;;;;;;5053512;28;20171;-77
2023/10/03 07:10:41;;;;;;;10.40;5.27;;;19.90;1.00;;;;;;5051994;28;20278;-77
2023/10/03 07:13:08;;;;;;;15.23;5.40;;;19.80;99.90;;;;;;5053260;28;20681;-77
2023/10/03 07:15:33;;;;;;;7.43;4.63;;;19.80;99.90;;;;;;5052046;28;20177;-77
2023/10/03 07:17:59;;;;;;;11.43;4.73;;;19.60;1.00;;;;;;5053778;28;20183;-77
2023/10/03 07:20:24;;;;;;;8.33;4.73;;;19.80;99.90;;;;;;5051894;28;20260;-76
2023/10/03 07:22:50;;;;;;;11.33;4.77;;;19.70;1.00;;;;;;5051766;28;20227;-77
2023/10/03 07:25:16;;;;;;;13.43;4.53;;;19.80;99.90;;;;;;5051854;28;20172;-78
2023/10/03 07:27:41;;;;;;;12.13;4.50;;;19.70;99.90;;;;;;5051770;28;20206;-77
2023/10/03 07:30:08;;;;;;;15.30;4.70;;;19.70;99.90;;;;;;5052734;28;20279;-77
2023/10/03 07:32:34;;;;;;;7.63;4.20;;;19.70;56.80;;;;;;5051616;28;20215;-77
2023/10/03 07:35:00;;;;;;;9.00;4.27;;;19.60;99.90;;;;;;5052998;28;20666;-77
2023/10/03 07:37:26;;;;;;;6.93;3.90;;;19.70;99.90;;;;;;5052960;28;20167;-77
2023/10/03 07:39:52;;;;;;;10.17;4.90;;;19.60;1.00;;;;;;5052986;28;20167;-77
2023/10/03 07:42:19;;;;;;;6.77;4.63;;;19.60;1.00;;;;;;5052888;28;20195;-77
2023/10/03 07:44:44;;;;;;;10.40;4.20;;;19.60;15.90;;;;;;5053102;28;20164;-77
2023/10/03 07:47:12;;;;;;;10.07;4.33;;;19.60;1.00;;;;;;5053214;28;20246;-77
2023/10/03 07:49:39;;;;;;;8.10;4.13;;;19.60;1.00;;;;;;5052709;28;20178;-77
2023/10/03 07:52:04;;;;;;;7.83;4.23;;;19.50;99.90;;;;;;5051101;28;20691;-77
2023/10/03 07:54:31;;;;;;;9.40;4.37;;;19.60;99.90;;;;;;5052608;28;20174;-77
2023/10/03 07:56:58;;;;;;;7.90;4.10;;;19.60;99.90;;;;;;5053058;28;20621;-77
2023/10/03 07:59:25;;;;;;;7.43;4.10;;;19.60;1.00;;;;;;5052864;28;20523;-77
2023/10/03 08:01:51;;;;;;;9.27;4.43;;;19.50;60.00;;;;;;5052651;28;20226;-77
2023/10/03 08:04:17;;;;;;;8.70;4.40;;;19.50;92.20;;;;;;5051175;28;20193;-77
2023/10/03 08:06:43;;;;;;;7.40;3.73;;;19.50;99.90;;;;;;5052477;28;20172;-77
2023/10/03 08:09:08;;;;;;;9.83;4.40;;;19.60;1.00;;;;;;5051185;28;20294;-77
2023/10/03 08:11:35;;;;;;;10.10;4.30;;;19.50;99.90;;;;;;5050859;28;20269;-77
2023/10/03 08:14:13;;;;;;;5.67;4.03;;;19.60;1.00;;;;;;5051019;28;20175;-77
2023/10/03 08:16:43;;;;;;;6.60;3.93;;;19.60;99.90;;;;;;5052451;28;20615;-77
2023/10/03 08:19:21;;;;;;;7.73;4.20;;;19.60;99.90;;;;;;5051297;28;20175;-76
2023/10/03 08:21:54;;;;;;;7.77;4.13;;;19.50;1.00;;;;;;5052576;28;20190;-77
2023/10/03 08:24:24;;;;;;;8.53;4.30;;;19.50;1.00;;;;;;5052813;28;20183;-77
2023/10/03 08:27:01;;;;;;;7.83;4.30;;;19.50;1.00;;;;;;5052525;28;20164;-77
2023/10/03 08:29:27;;;;;;;9.20;4.37;;;19.50;1.00;;;;;;5050772;28;20168;-77
2023/10/03 08:31:58;;;;;;;8.87;4.57;;;19.50;1.00;;;;;;5052187;28;20309;-77
2023/10/03 08:34:25;;;;;;;6.60;3.90;;;19.40;1.00;;;;;;5050849;28;20168;-76
2023/10/03 08:36:54;;;;;;;7.50;4.10;;;19.40;99.90;;;;;;5051092;28;20709;-77
2023/10/03 08:39:23;;;;;;;11.07;4.07;;;19.40;99.90;;;;;;5052023;28;20757;-77
2023/10/03 08:42:15;;;;;;;9.63;4.33;;;19.40;99.90;;;;;;5050585;28;20579;-77
2023/10/03 08:44:51;;;;;;;6.30;4.30;;;19.30;99.90;;;;;;5050604;28;20179;-77
2023/10/03 08:47:23;;;;;;;9.03;4.40;;;19.30;1.00;;;;;;5052240;28;20159;-75
2023/10/03 08:49:56;;;;;;;9.93;4.20;;;19.30;1.00;;;;;;5052025;28;20491;-77
2023/10/03 08:52:39;;;;;;;12.17;4.50;;;19.30;1.00;;;;;;5052128;28;20203;-77
2023/10/03 08:55:07;;;;;;;9.83;4.57;;;19.40;1.00;;;;;;5051842;28;20151;-77
2023/10/03 08:57:35;;;;;;;8.93;4.50;;;19.20;40.70;;;;;;5050737;28;20662;-77
2023/10/03 09:00:03;;;;;;;7.13;3.90;;;19.30;99.90;;;;;;5050583;28;20180;-76
2023/10/03 09:02:30;;;;;;;8.83;4.47;;;19.40;1.00;;;;;;5051811;28;20188;-77
2023/10/03 09:04:57;;;;;;;7.57;4.43;;;19.30;1.00;;;;;;5052214;28;20655;-77
2023/10/03 09:07:23;;;;;;;9.00;4.53;;;19.40;99.90;;;;;;5051828;28;20175;-77
2023/10/03 09:09:50;;;;;;;7.83;4.40;;;19.40;99.90;;;;;;5052203;28;20175;-77
2023/10/03 09:12:20;;;;;;;9.93;4.13;;;19.40;1.00;;;;;;5052254;28;20226;-77
2023/10/03 09:14:53;;;;;;;6.60;4.03;;;19.30;99.90;;;;;;5055936;28;20176;-77
2023/10/03 09:17:23;;;;;;;8.70;4.10;;;19.40;1.00;;;;;;5055669;28;20152;-76
2023/10/03 09:19:50;;;;;;;9.27;3.90;;;19.50;1.00;;;;;;5056212;28;20190;-77
2023/10/03 09:22:31;;;;;;;10.97;4.53;;;19.40;99.90;;;;;;5055584;28;20617;-77
2023/10/03 09:24:56;;;;;;;8.87;4.23;;;19.40;1.00;;;;;;5055470;28;20199;-77
2023/10/03 09:27:29;;;;;;;7.47;4.00;;;19.50;99.90;;;;;;5055673;28;20191;-76
2023/10/03 09:29:58;;;;;;;9.47;4.17;;;19.40;1.00;;;;;;5055216;28;20249;-77
2023/10/03 09:32:24;;;;;;;8.37;3.93;;;19.40;1.00;;;;;;5055640;28;20203;-77
2023/10/03 09:34:57;;;;;;;8.07;4.43;;;19.40;99.90;;;;;;5055257;28;20252;-77
2023/10/03 09:37:28;;;;;;;8.17;3.90;;;19.50;1.00;;;;;;5055559;28;20164;-77
2023/10/03 09:39:59;;;;;;;5.87;3.70;;;19.50;1.00;;;;;;5055462;28;20167;-77
2023/10/03 09:42:25;;;;;;;12.83;4.33;;;19.70;1.00;;;;;;5055272;28;20681;-76
2023/10/03 09:44:51;;;;;;;9.67;3.90;;;19.60;99.90;;;;;;5053740;28;20176;-77
2023/10/03 09:47:18;;;;;;;7.40;4.27;;;19.60;99.90;;;;;;5055105;28;20758;-77
2023/10/03 09:49:46;;;;;;;8.63;3.90;;;19.60;99.90;;;;;;5053771;28;20237;-77
2023/10/03 09:52:22;;;;;;;7.10;3.90;;;19.60;99.90;;;;;;5055209;28;20219;-77
2023/10/03 09:54:53;;;;;;;7.90;3.70;;;19.50;99.90;;;;;;5053791;28;20176;-77
2023/10/03 09:57:24;;;;;;;8.17;3.80;;;19.60;46.80;;;;;;5053611;28;20669;-77
2023/10/03 09:59:50;;;;;;;8.30;3.50;;;19.60;1.00;;;;;;5054972;28;20203;-77
2023/10/03 10:02:30;;;;;;;5.73;3.57;;;19.60;99.90;;;;;;5054802;28;20195;-76
2023/10/03 10:04:59;;;;;;;5.27;3.40;;;19.60;1.00;;;;;;5053444;28;20677;-77
2023/10/03 10:07:35;;;;;;;6.07;4.27;;;19.50;99.90;;;;;;5054993;28;20249;-77
2023/10/03 10:10:09;;;;;;;10.10;4.23;;;19.50;99.90;;;;;;5053302;28;20639;-75
2023/10/03 10:12:43;;;;;;;7.23;4.60;;;19.20;1.00;;;;;;5054738;28;20198;-76
2023/10/03 10:17:46;;;;;;;8.80;5.70;;;18.80;99.90;;;;;;5054734;28;20180;-76
2023/10/03 10:20:21;;;;;;;12.17;5.80;;;18.50;99.90;;;;;;5054440;28;20164;-77
2023/10/03 10:22:59;;;;;;;8.23;5.77;;;18.40;99.90;;;;;;5054381;28;20248;-76
2023/10/03 10:25:31;;;;;;;10.93;6.60;;;18.30;99.90;;;;;;5053958;28;20168;-76
2023/10/03 10:28:07;;;;;;;11.97;6.70;;;18.20;99.90;;;;;;5054329;28;20168;-77
2023/10/03 10:30:33;;;;;;;10.50;6.60;;;18.10;99.90;;;;;;5054725;28;20214;-77
2023/10/03 10:33:23;;;;;;;8.37;6.70;;;18.10;99.90;;;;;;5052792;28;20199;-77
2023/10/03 10:35:54;;;;;;;9.03;6.77;;;18.00;99.90;;;;;;5052891;28;20168;-77
2023/10/03 10:38:21;;;;;;;11.50;5.70;;;17.90;99.90;;;;;;5054289;28;20152;-77
2023/10/03 10:41:12;;;;;;;12.97;6.63;;;17.90;99.90;;;;;;5052676;28;20187;-77
2023/10/03 10:44:08;;;;;;;10.60;6.40;;;17.90;99.90;;;;;;5053901;28;20206;-76
2023/10/03 10:46:38;;;;;;;8.00;6.07;;;17.90;99.90;;;;;;5052986;28;20188;-77
2023/10/03 10:49:06;;;;;;;7.47;5.87;;;17.90;99.90;;;;;;5052628;28;20179;-77
2023/10/03 10:51:34;;;;;;;8.70;5.90;;;17.90;99.90;;;;;;5052283;28;20301;-76
2023/10/03 10:54:00;;;;;;;7.57;5.70;;;17.90;99.90;;;;;;5052326;28;20187;-77
2023/10/03 10:56:28;;;;;;;9.17;5.67;;;17.80;99.90;;;;;;5053670;28;20171;-76
2023/10/03 10:59:02;;;;;;;9.00;6.20;;;17.80;99.90;;;;;;5052294;28;20280;-77
2023/10/03 11:01:28;;;;;;;10.07;5.93;;;17.80;99.90;;;;;;5052204;28;20175;-77
2023/10/03 11:03:54;;;;;;;11.70;5.17;;;17.80;99.90;;;;;;5052237;28;20183;-76
2023/10/03 11:06:23;;;;;;;6.87;4.63;;;17.80;99.90;;;;;;5052210;28;20642;-77
2023/10/03 11:08:50;;;;;;;7.70;2.90;;;17.80;99.90;;;;;;5053435;28;20168;-77
2023/10/03 11:11:16;;;;;;;6.67;1.97;;;17.80;99.90;;;;;;5053450;28;20262;-75
2023/10/03 11:13:50;;;;;;;4.00;1.40;;;17.80;99.90;;;;;;5053653;28;20535;-76
2023/10/03 11:16:26;;;;;;;3.87;1.20;;;17.70;99.90;;;;;;5052163;28;20221;-77
2023/10/03 11:18:54;;;;;;;3.37;0.80;;;17.70;1.00;;;;;;5051852;28;20183;-77
2023/10/03 11:21:23;;;;;;;4.60;1.10;;;17.70;1.00;;;;;;5051874;28;20183;-76
2023/10/03 11:24:10;;;;;;;2.17;1.00;;;17.70;1.00;;;;;;5051867;28;20232;-76
2023/10/03 11:26:53;;;;;;;3.60;1.03;;;17.70;1.00;;;;;;5052238;28;20179;-77
2023/10/03 11:29:46;;;;;;;2.20;0.80;;;17.70;1.00;;;;;;5052980;28;20187;-77
2023/10/03 11:32:32;;;;;;;2.93;0.90;;;17.80;1.00;;;;;;5051537;28;20226;-77
2023/10/03 11:35:12;;;;;;;3.27;0.90;;;17.80;1.00;;;;;;5052697;28;20160;-76
2023/10/03 11:37:45;;;;;;;3.07;1.13;;;17.80;1.00;;;;;;5051515;28;20175;-77
2023/10/03 11:40:40;;;;;;;4.30;1.10;;;18.00;99.90;;;;;;5052840;28;20163;-76
2023/10/03 11:43:08;;;;;;;2.17;1.00;;;17.90;1.00;;;;;;5050164;28;20203;-77
2023/10/03 11:45:34;;;;;;;3.23;1.10;;;17.90;99.90;;;;;;5051449;28;20190;-77
2023/10/03 11:48:19;;;;;;;4.03;1.10;;;17.80;1.00;;;;;;5051335;28;20266;-77
2023/10/03 11:50:45;;;;;;;6.10;1.40;;;17.80;1.00;;;;;;5052544;28;20196;-77
2023/10/03 11:53:12;;;;;;;6.93;1.30;;;17.80;93.30;;;;;;5052332;28;20203;-75
2023/10/03 11:55:40;;;;;;;2.83;1.10;;;17.90;93.40;;;;;;5052504;28;20186;-77
2023/10/03 11:58:07;;;;;;;2.10;1.13;;;17.90;99.90;;;;;;5052500;28;20168;-77
2023/10/03 12:00:33;;;;;;;4.13;1.23;;;17.90;69.10;;;;;;5052507;28;20191;-77
2023/10/03 12:02:59;;;;;;;4.80;1.60;;;17.90;17.80;;;;;;5051013;28;20202;-77
2023/10/03 12:05:26;;;;;;;3.50;1.60;;;17.90;1.00;;;;;;5052483;28;20613;-77
2023/10/03 12:07:56;;;;;;;3.67;1.63;;;17.80;99.90;;;;;;5051436;28;20215;-77
2023/10/03 12:10:24;;;;;;;8.00;2.00;;;17.80;99.90;;;;;;5052139;28;20195;-75
2023/10/03 12:12:50;;;;;;;4.50;1.80;;;17.90;99.90;;;;;;5052150;28;20191;-77
2023/10/03 12:15:16;;;;;;;8.87;2.30;;;17.80;1.00;;;;;;5051284;28;20171;-77
2023/10/03 12:17:43;;;;;;;7.30;2.00;;;17.70;1.00;;;;;;5051012;28;20171;-77
2023/10/03 12:20:12;;;;;;;1.93;1.00;;;17.70;1.00;;;;;;5052509;28;20251;-77
2023/10/03 12:22:45;;;;;;;3.30;1.10;;;17.70;1.00;;;;;;5052161;28;20199;-77
2023/10/03 12:25:15;;;;;;;5.37;0.90;;;17.50;1.00;;;;;;5052039;28;20202;-77
2023/10/03 12:27:42;;;;;;;2.17;0.90;;;17.50;1.00;;;;;;5052043;28;20254;-77
2023/10/03 12:30:11;;;;;;;3.43;0.87;;;17.40;1.00;;;;;;5052193;28;20191;-77
2023/10/03 12:32:38;;;;;;;2.17;0.93;;;17.40;1.00;;;;;;5052284;28;20179;-77
2023/10/03 12:35:06;;;;;;;3.67;1.10;;;17.30;99.90;;;;;;5053224;28;20244;-77
2023/10/03 12:37:32;;;;;;;2.90;0.97;;;17.30;99.90;;;;;;5052227;28;20309;-77
2023/10/03 12:40:03;;;;;;;3.20;0.80;;;17.20;1.00;;;;;;5053202;28;20541;-77
2023/10/03 12:42:28;;;;;;;3.00;1.37;;;17.20;1.00;;;;;;5052215;28;20188;-77
2023/10/03 12:44:56;;;;;;;5.43;2.73;;;17.10;38.80;;;;;;5050859;28;20182;-77
2023/10/03 12:47:22;;;;;;;6.90;3.00;;;17.10;99.90;;;;;;5054133;28;20167;-77
2023/10/03 12:49:48;;;;;;;9.60;3.60;;;16.90;99.90;;;;;;5056459;28;20734;-77
2023/10/03 12:52:13;;;;;;;5.37;2.87;;;16.80;99.90;;;;;;5054624;28;20203;-77
2023/10/03 12:54:40;;;;;;;4.57;2.40;;;16.80;99.90;;;;;;5056158;28;20174;-77